Time;durP1;ratioP1;P1;durP2;ratioP2;P2;SDS_P1;SDS_P2;PMS_P1;PMS_P2;Temp;Humidity;BMP_temperature;BMP_pressure;BME280_temperature;BME280_humidity;BME280_pressure;Samples;Min_cycle;Max_cycle;Signal;HPM_P1;HPM_P2
2023/05/07 00:02:19;;;;;;;1.67;1.50;;;22.80;73.10;;;;;;4936035;29;20453;-83
2023/05/07 00:04:46;;;;;;;2.10;1.60;;;22.80;73.10;;;;;;4935970;29;20942;-83
2023/05/07 00:07:12;;;;;;;2.87;1.57;;;23.00;73.30;;;;;;4935982;29;20478;-83
2023/05/07 00:09:39;;;;;;;2.17;1.53;;;22.80;73.10;;;;;;4936116;29;20450;-87
2023/05/07 00:12:06;;;;;;;1.87;1.70;;;22.80;73.10;;;;;;4935964;29;20438;-86
2023/05/07 00:14:33;;;;;;;2.23;1.50;;;22.80;73.10;;;;;;4935831;29;21028;-84
2023/05/07 00:17:01;;;;;;;2.80;1.57;;;22.80;73.10;;;;;;4936147;29;20942;-83
2023/05/07 00:19:28;;;;;;;2.10;1.53;;;22.80;73.10;;;;;;4951874;29;20532;-84
2023/05/07 00:21:55;;;;;;;2.60;1.70;;;22.80;73.10;;;;;;4954814;29;20925;-84
2023/05/07 00:24:22;;;;;;;1.83;1.30;;;22.80;73.10;;;;;;4954768;29;20591;-83
2023/05/07 00:26:49;;;;;;;3.00;1.30;;;22.80;73.10;;;;;;4954566;29;20925;-83
2023/05/07 00:29:16;;;;;;;1.70;1.50;;;22.80;73.10;;;;;;4954797;29;20446;-84
2023/05/07 00:31:42;;;;;;;1.87;1.20;;;22.80;73.20;;;;;;4954692;29;20449;-84
2023/05/07 00:34:10;;;;;;;1.93;1.67;;;22.80;73.10;;;;;;4954998;29;20510;-88
2023/05/07 00:36:38;;;;;;;1.73;1.63;;;22.80;73.10;;;;;;4954758;28;20470;-89
2023/05/07 00:39:05;;;;;;;2.00;1.27;;;22.80;73.10;;;;;;4955112;29;20453;-86
2023/05/07 00:41:32;;;;;;;2.63;1.87;;;22.80;72.00;;;;;;4954915;29;20458;-90
2023/05/07 00:43:59;;;;;;;1.70;1.30;;;22.80;71.40;;;;;;4955146;29;20456;-86
2023/05/07 00:46:26;;;;;;;1.77;1.07;;;22.70;71.40;;;;;;4954747;29;21020;-85
2023/05/07 00:48:53;;;;;;;8.40;1.20;;;22.90;71.80;;;;;;4954584;29;20446;-84
2023/05/07 00:51:21;;;;;;;3.00;1.53;;;22.70;71.70;;;;;;4954072;29;20446;-85
2023/05/07 00:53:48;;;;;;;2.50;1.83;;;22.70;71.80;;;;;;4954135;29;20492;-84
2023/05/07 00:56:15;;;;;;;2.20;1.43;;;22.70;72.60;;;;;;4954381;28;20443;-84
2023/05/07 00:58:42;;;;;;;2.63;1.50;;;22.80;73.00;;;;;;4957797;29;20447;-84
2023/05/07 01:01:09;;;;;;;2.07;1.40;;;22.80;73.20;;;;;;4957683;29;20835;-84
2023/05/07 01:03:36;;;;;;;1.30;1.17;;;22.80;73.30;;;;;;4957804;29;20450;-84
2023/05/07 01:06:04;;;;;;;2.63;1.60;;;22.80;73.40;;;;;;4955823;28;20482;-84
2023/05/07 01:08:34;;;;;;;1.93;1.60;;;22.80;73.40;;;;;;4955483;29;20447;-85
2023/05/07 01:11:02;;;;;;;1.80;1.40;;;22.80;73.40;;;;;;4955583;29;20447;-84
2023/05/07 01:13:29;;;;;;;1.43;1.30;;;22.80;73.40;;;;;;4955359;29;20486;-85
2023/05/07 01:15:56;;;;;;;1.93;1.33;;;22.80;73.40;;;;;;4955353;29;20454;-85
2023/05/07 01:18:23;;;;;;;2.20;1.40;;;22.80;73.50;;;;;;4955477;29;20535;-84
2023/05/07 01:20:50;;;;;;;9.50;1.40;;;22.80;73.40;;;;;;4956288;29;20451;-84
2023/05/07 01:23:19;;;;;;;1.73;1.20;;;22.80;73.40;;;;;;4957376;29;20446;-84
2023/05/07 01:25:52;;;;;;;2.50;1.60;;;22.80;73.50;;;;;;4957306;29;20458;-84
2023/05/07 01:28:19;;;;;;;1.60;1.30;;;22.80;73.40;;;;;;4957382;29;20454;-84
2023/05/07 01:30:50;;;;;;;1.70;1.40;;;22.80;73.40;;;;;;4957216;29;20537;-85
2023/05/07 01:33:21;;;;;;;2.20;1.30;;;22.80;73.40;;;;;;4957327;29;20446;-84
2023/05/07 01:35:51;;;;;;;1.50;1.30;;;22.80;73.40;;;;;;4957374;28;20465;-85
2023/05/07 01:38:19;;;;;;;1.70;1.23;;;22.80;73.50;;;;;;4957315;29;20935;-84
2023/05/07 01:40:46;;;;;;;3.47;1.40;;;22.90;73.60;;;;;;4957390;29;20458;-84
2023/05/07 01:43:13;;;;;;;3.33;1.20;;;22.70;73.30;;;;;;4957061;29;20924;-85
2023/05/07 01:45:41;;;;;;;1.97;1.43;;;22.90;73.50;;;;;;4957052;29;20450;-85
2023/05/07 01:48:09;;;;;;;2.07;1.40;;;22.80;73.30;;;;;;4956973;29;20446;-85
2023/05/07 01:50:37;;;;;;;2.03;1.33;;;22.80;73.30;;;;;;4956630;29;20520;-84
2023/05/07 01:53:04;;;;;;;3.30;1.30;;;22.80;73.40;;;;;;4956830;29;20822;-85
2023/05/07 01:55:32;;;;;;;2.00;1.40;;;22.90;73.50;;;;;;4956884;29;20490;-84
2023/05/07 01:57:58;;;;;;;1.60;1.23;;;22.80;73.40;;;;;;4957108;29;20442;-85
2023/05/07 02:00:25;;;;;;;2.23;1.57;;;22.80;73.30;;;;;;4956783;29;20446;-84
2023/05/07 02:02:52;;;;;;;1.97;1.40;;;22.70;73.20;;;;;;4956852;29;20442;-84
2023/05/07 02:05:19;;;;;;;1.80;1.50;;;22.80;73.30;;;;;;4956444;28;20467;-85
2023/05/07 02:07:46;;;;;;;2.47;1.00;;;22.70;73.20;;;;;;4956159;28;20442;-84
2023/05/07 02:10:13;;;;;;;2.50;1.30;;;22.70;73.20;;;;;;4956047;29;20442;-85
2023/05/07 02:12:42;;;;;;;1.60;1.23;;;22.70;73.30;;;;;;4956377;29;20452;-85
2023/05/07 02:15:10;;;;;;;1.53;1.43;;;22.70;73.20;;;;;;4956650;29;20485;-84
2023/05/07 02:17:40;;;;;;;2.03;1.33;;;22.80;73.30;;;;;;4956560;29;20858;-84
2023/05/07 02:20:13;;;;;;;1.40;1.07;;;22.70;73.20;;;;;;4956517;29;20449;-84
2023/05/07 02:22:39;;;;;;;1.90;1.40;;;22.70;73.20;;;;;;4956480;29;20450;-85
2023/05/07 02:25:06;;;;;;;2.13;1.77;;;22.70;73.20;;;;;;4956381;29;20449;-84
2023/05/07 02:27:33;;;;;;;2.13;1.50;;;22.70;73.20;;;;;;4956466;29;20456;-85
2023/05/07 02:30:01;;;;;;;1.53;1.30;;;22.70;73.20;;;;;;4956439;29;20454;-84
2023/05/07 02:32:28;;;;;;;2.23;1.33;;;22.70;73.20;;;;;;4956226;29;20549;-84
2023/05/07 02:34:55;;;;;;;1.60;1.33;;;22.70;73.20;;;;;;4956089;28;20497;-84
2023/05/07 02:37:25;;;;;;;1.50;1.27;;;22.70;73.10;;;;;;4956184;29;20446;-84
2023/05/07 02:39:52;;;;;;;2.33;1.20;;;22.70;73.10;;;;;;4955591;29;20448;-85
2023/05/07 02:42:18;;;;;;;1.30;1.20;;;22.70;73.20;;;;;;4956132;29;20449;-85
2023/05/07 02:44:45;;;;;;;1.50;1.30;;;22.70;73.20;;;;;;4955932;29;20446;-84
2023/05/07 02:47:15;;;;;;;1.70;1.60;;;22.70;73.10;;;;;;4955903;29;20453;-85
2023/05/07 02:49:42;;;;;;;1.50;1.27;;;22.70;73.10;;;;;;4956030;29;20926;-85
2023/05/07 02:52:09;;;;;;;1.60;1.20;;;22.70;73.10;;;;;;4955735;29;20450;-84
2023/05/07 02:54:36;;;;;;;1.30;1.10;;;22.70;73.10;;;;;;4955863;29;20491;-84
2023/05/07 02:57:03;;;;;;;1.97;1.10;;;22.70;73.10;;;;;;4955768;29;20465;-85
2023/05/07 02:59:29;;;;;;;1.37;1.20;;;22.70;73.10;;;;;;4955622;29;20453;-84
2023/05/07 03:01:56;;;;;;;1.87;1.50;;;22.70;73.10;;;;;;4955692;29;20453;-84
2023/05/07 03:04:24;;;;;;;1.40;1.27;;;22.70;73.10;;;;;;4955569;29;20446;-84
2023/05/07 03:06:51;;;;;;;1.50;1.27;;;22.70;73.10;;;;;;4955503;28;20478;-84
2023/05/07 03:09:18;;;;;;;1.30;1.10;;;22.70;73.10;;;;;;4955449;29;20448;-85
2023/05/07 03:11:45;;;;;;;2.00;1.50;;;22.70;73.10;;;;;;4955523;29;20443;-84
2023/05/07 03:14:11;;;;;;;1.47;1.20;;;22.70;73.10;;;;;;4955451;29;20837;-84
2023/05/07 03:16:38;;;;;;;1.70;1.20;;;22.70;73.10;;;;;;4955412;29;20956;-84
2023/05/07 03:19:05;;;;;;;1.30;1.20;;;22.70;73.00;;;;;;4955297;28;20946;-84
2023/05/07 03:21:34;;;;;;;1.60;1.17;;;22.70;73.00;;;;;;4955163;29;20968;-84
2023/05/07 03:24:01;;;;;;;1.93;1.57;;;22.70;73.00;;;;;;4955488;29;20445;-84
2023/05/07 03:26:27;;;;;;;1.60;1.50;;;22.70;73.00;;;;;;4955429;29;20828;-84
2023/05/07 03:28:55;;;;;;;1.47;1.37;;;22.70;73.00;;;;;;4955511;29;20450;-84
2023/05/07 03:31:22;;;;;;;2.87;1.23;;;22.70;73.90;;;;;;4955402;29;20473;-84
2023/05/07 03:33:52;;;;;;;1.70;1.40;;;22.70;73.00;;;;;;4955266;29;20446;-85
2023/05/07 03:36:19;;;;;;;1.53;1.43;;;22.70;73.00;;;;;;4955192;28;20530;-84
2023/05/07 03:38:47;;;;;;;1.30;1.10;;;22.70;73.80;;;;;;4954969;29;20442;-84
2023/05/07 03:41:14;;;;;;;1.40;1.17;;;22.80;73.20;;;;;;4955117;29;20450;-84
2023/05/07 03:43:41;;;;;;;2.00;1.30;;;22.70;73.00;;;;;;4955074;29;20447;-85
2023/05/07 03:46:08;;;;;;;1.50;1.10;;;22.60;72.90;;;;;;4955037;29;20456;-84
2023/05/07 03:48:35;;;;;;;1.47;1.37;;;22.70;73.00;;;;;;4955121;29;20446;-85
2023/05/07 03:51:01;;;;;;;2.13;1.43;;;22.60;72.90;;;;;;4955046;29;20529;-84
2023/05/07 03:53:28;;;;;;;1.77;1.67;;;22.70;73.00;;;;;;4955263;29;20450;-84
2023/05/07 03:55:56;;;;;;;1.70;1.60;;;22.60;72.90;;;;;;4954908;29;20505;-84
2023/05/07 03:58:23;;;;;;;1.50;1.40;;;22.60;72.90;;;;;;4954929;29;20457;-85
2023/05/07 04:00:50;;;;;;;1.50;1.40;;;22.60;72.90;;;;;;4955054;29;20906;-84
2023/05/07 04:03:17;;;;;;;1.40;1.30;;;22.60;72.90;;;;;;4954855;29;20793;-85
2023/05/07 04:05:43;;;;;;;1.70;1.30;;;22.60;72.80;;;;;;4954654;28;20466;-84
2023/05/07 04:08:10;;;;;;;1.73;1.63;;;22.70;73.00;;;;;;4954791;29;20922;-84
2023/05/07 04:10:37;;;;;;;1.53;1.40;;;22.60;72.90;;;;;;4954942;29;20450;-85
2023/05/07 04:13:05;;;;;;;1.20;1.07;;;22.60;72.90;;;;;;4954913;29;20476;-84
2023/05/07 04:15:32;;;;;;;1.60;1.50;;;22.60;72.90;;;;;;4954757;29;20493;-84
2023/05/07 04:17:59;;;;;;;1.50;1.40;;;22.60;72.90;;;;;;4954720;29;20453;-84
2023/05/07 04:20:26;;;;;;;2.03;1.60;;;22.60;72.90;;;;;;4954873;29;20472;-85
2023/05/07 04:22:52;;;;;;;1.30;1.20;;;22.60;72.90;;;;;;4954841;29;20536;-85
2023/05/07 04:25:19;;;;;;;1.93;1.50;;;22.60;72.90;;;;;;4954727;29;20458;-84
2023/05/07 04:27:46;;;;;;;1.50;1.40;;;22.60;72.90;;;;;;4954831;29;20450;-85
2023/05/07 04:30:15;;;;;;;1.33;1.23;;;22.60;72.80;;;;;;4954690;29;20449;-85
2023/05/07 04:32:41;;;;;;;1.80;1.30;;;22.60;72.90;;;;;;4956837;28;20446;-84
2023/05/07 04:35:09;;;;;;;1.33;1.23;;;22.60;72.90;;;;;;4958404;28;20493;-84
2023/05/07 04:37:36;;;;;;;1.57;1.47;;;22.60;72.90;;;;;;4958427;29;20529;-85
2023/05/07 04:40:03;;;;;;;1.20;1.07;;;22.60;73.30;;;;;;4958305;29;20438;-84
2023/05/07 04:42:31;;;;;;;1.50;1.30;;;22.60;72.90;;;;;;4958159;29;20778;-85
2023/05/07 04:44:57;;;;;;;1.67;1.50;;;22.60;72.80;;;;;;4958230;29;20865;-85
2023/05/07 04:47:26;;;;;;;2.27;1.43;;;22.60;72.90;;;;;;4958208;29;20445;-85
2023/05/07 04:49:52;;;;;;;1.43;1.33;;;22.60;72.90;;;;;;4958256;29;20449;-85
2023/05/07 04:52:20;;;;;;;1.40;1.30;;;22.60;72.90;;;;;;4958029;29;20442;-85
2023/05/07 04:54:46;;;;;;;1.30;1.20;;;22.60;72.90;;;;;;4957993;29;20515;-84
2023/05/07 04:57:13;;;;;;;1.53;1.43;;;22.60;72.80;;;;;;4957854;29;20449;-85
2023/05/07 04:59:40;;;;;;;1.63;1.53;;;22.60;72.80;;;;;;4957947;29;20446;-84
2023/05/07 05:02:07;;;;;;;1.70;1.30;;;22.70;72.90;;;;;;4957943;29;20454;-85
2023/05/07 05:04:35;;;;;;;1.80;1.53;;;22.60;72.80;;;;;;4957790;28;20454;-84
2023/05/07 05:07:03;;;;;;;1.67;1.30;;;22.60;72.80;;;;;;4957626;29;20490;-84
2023/05/07 05:09:30;;;;;;;1.23;1.13;;;22.60;72.90;;;;;;4957790;29;20442;-84
2023/05/07 05:11:57;;;;;;;1.23;1.00;;;22.60;72.90;;;;;;4957526;29;20443;-84
2023/05/07 05:14:23;;;;;;;1.80;1.70;;;22.70;72.90;;;;;;4957815;29;20453;-85
2023/05/07 05:16:50;;;;;;;1.70;1.60;;;22.60;72.80;;;;;;4957630;29;20464;-84
2023/05/07 05:19:17;;;;;;;1.40;1.30;;;22.60;72.80;;;;;;4957568;29;20941;-84
2023/05/07 05:21:45;;;;;;;1.40;1.30;;;22.60;72.80;;;;;;4957487;29;20438;-84
2023/05/07 05:24:12;;;;;;;1.30;1.20;;;22.60;72.80;;;;;;4957512;29;20449;-84
2023/05/07 05:26:39;;;;;;;1.43;1.27;;;22.60;72.80;;;;;;4957471;29;20442;-84
2023/05/07 05:29:06;;;;;;;1.67;1.47;;;22.60;72.80;;;;;;4957322;29;20529;-84
2023/05/07 05:31:33;;;;;;;1.57;1.47;;;22.60;72.80;;;;;;4957254;29;20789;-84
2023/05/07 05:34:00;;;;;;;1.43;1.33;;;22.60;72.80;;;;;;4957302;29;20446;-84
2023/05/07 05:36:27;;;;;;;1.30;1.13;;;22.60;73.60;;;;;;4957177;28;20500;-85
2023/05/07 05:38:56;;;;;;;1.47;1.23;;;22.60;72.80;;;;;;4957218;29;20461;-84
2023/05/07 05:41:23;;;;;;;1.50;1.40;;;22.80;72.90;;;;;;4957064;29;20446;-84
2023/05/07 05:43:49;;;;;;;1.33;1.23;;;22.60;72.70;;;;;;4956709;28;20963;-84
2023/05/07 05:46:16;;;;;;;1.53;1.10;;;22.60;72.70;;;;;;4957109;29;20457;-85
2023/05/07 05:48:43;;;;;;;1.40;1.27;;;22.60;72.70;;;;;;4957228;29;20450;-84
2023/05/07 05:51:10;;;;;;;1.47;1.30;;;22.60;72.70;;;;;;4956945;29;20434;-84
2023/05/07 05:53:36;;;;;;;1.70;1.40;;;22.60;72.70;;;;;;4956862;29;20805;-85
2023/05/07 05:56:05;;;;;;;1.67;1.57;;;22.60;72.60;;;;;;4956949;29;20993;-85
2023/05/07 05:58:32;;;;;;;2.73;1.13;;;22.60;72.60;;;;;;4956739;29;20456;-84
2023/05/07 06:00:59;;;;;;;1.40;1.27;;;22.60;72.60;;;;;;4956884;29;20452;-84
2023/05/07 06:03:26;;;;;;;1.40;1.30;;;22.60;72.60;;;;;;4956877;29;20474;-84
2023/05/07 06:05:52;;;;;;;1.77;1.33;;;22.60;72.70;;;;;;4956485;28;20977;-84
2023/05/07 06:08:19;;;;;;;2.07;1.43;;;22.80;72.80;;;;;;4956901;29;20446;-84
2023/05/07 06:10:46;;;;;;;1.67;1.03;;;22.60;72.60;;;;;;4956597;29;20532;-84
2023/05/07 06:13:14;;;;;;;1.20;1.00;;;22.60;72.60;;;;;;4956671;29;20450;-84
2023/05/07 06:15:41;;;;;;;1.30;1.20;;;22.60;72.60;;;;;;4956690;29;20494;-85
2023/05/07 06:18:08;;;;;;;1.33;1.23;;;22.60;72.60;;;;;;4956420;29;20786;-85
2023/05/07 06:20:34;;;;;;;1.13;1.03;;;22.60;72.60;;;;;;4956264;29;20458;-85
2023/05/07 06:23:01;;;;;;;1.30;1.20;;;22.60;72.60;;;;;;4956303;29;20445;-84
2023/05/07 06:25:28;;;;;;;1.70;1.30;;;22.60;72.50;;;;;;4956399;29;20817;-84
2023/05/07 06:27:55;;;;;;;1.13;1.03;;;22.70;72.60;;;;;;4956280;29;20446;-84
2023/05/07 06:30:23;;;;;;;1.20;1.07;;;22.80;72.70;;;;;;4956174;29;20960;-84
2023/05/07 06:32:50;;;;;;;1.50;1.20;;;22.60;72.50;;;;;;4956328;29;20443;-84
2023/05/07 06:35:17;;;;;;;1.67;1.57;;;22.60;72.50;;;;;;4955974;28;20488;-84
2023/05/07 06:37:43;;;;;;;1.30;1.20;;;22.60;72.40;;;;;;4956056;29;20446;-84
2023/05/07 06:40:11;;;;;;;1.27;1.17;;;22.80;72.60;;;;;;4956147;29;20442;-84
2023/05/07 06:42:38;;;;;;;1.23;1.13;;;22.60;72.40;;;;;;4955982;29;20442;-85
2023/05/07 06:45:06;;;;;;;1.20;1.10;;;22.70;72.50;;;;;;4956040;29;20450;-84
2023/05/07 06:47:34;;;;;;;1.30;1.10;;;22.60;72.40;;;;;;4955949;29;20460;-84
2023/05/07 06:50:01;;;;;;;1.20;1.10;;;22.60;72.30;;;;;;4956033;29;20449;-84
2023/05/07 06:52:27;;;;;;;1.30;1.20;;;22.60;72.40;;;;;;4955903;29;20504;-84
2023/05/07 06:54:54;;;;;;;1.27;1.17;;;22.60;72.30;;;;;;4955126;28;20442;-85
2023/05/07 06:57:21;;;;;;;1.40;1.30;;;22.70;72.40;;;;;;4955897;29;20493;-84
2023/05/07 06:59:47;;;;;;;1.53;1.30;;;22.70;72.30;;;;;;4955688;29;20442;-84
2023/05/07 07:02:14;;;;;;;1.20;1.00;;;22.60;72.20;;;;;;4955590;29;20457;-84
2023/05/07 07:04:42;;;;;;;1.33;1.20;;;22.60;72.20;;;;;;4955647;28;20500;-85
2023/05/07 07:07:09;;;;;;;1.40;1.20;;;22.60;72.20;;;;;;4955323;29;20482;-84
2023/05/07 07:09:36;;;;;;;1.23;1.13;;;22.70;72.30;;;;;;4955678;29;20953;-84
2023/05/07 07:12:03;;;;;;;2.80;1.00;;;22.70;72.30;;;;;;4955455;29;20495;-85
2023/05/07 07:14:30;;;;;;;1.20;1.00;;;22.70;72.30;;;;;;4955562;29;20933;-85
2023/05/07 07:16:56;;;;;;;1.50;1.37;;;22.70;72.40;;;;;;4955396;29;20485;-85
2023/05/07 07:19:23;;;;;;;1.10;0.90;;;22.70;72.40;;;;;;4955373;29;20452;-84
2023/05/07 07:21:51;;;;;;;1.20;1.10;;;22.70;72.40;;;;;;4955317;29;20456;-85
2023/05/07 07:24:20;;;;;;;1.10;0.90;;;22.70;72.40;;;;;;4955339;29;20453;-84
2023/05/07 07:26:47;;;;;;;1.50;1.03;;;22.70;72.40;;;;;;4955406;29;20448;-85
2023/05/07 07:29:14;;;;;;;1.40;1.30;;;22.70;72.50;;;;;;4955403;29;20951;-84
2023/05/07 07:31:41;;;;;;;1.30;1.00;;;22.70;72.40;;;;;;4955271;29;20446;-84
2023/05/07 07:34:08;;;;;;;1.10;1.00;;;22.70;72.50;;;;;;4955252;29;20442;-84
2023/05/07 07:36:34;;;;;;;1.40;1.00;;;22.70;72.50;;;;;;4954935;28;21023;-84
2023/05/07 07:39:03;;;;;;;1.23;1.13;;;22.70;72.50;;;;;;4955238;29;20907;-84
2023/05/07 07:41:29;;;;;;;1.10;0.90;;;22.70;72.50;;;;;;4955066;29;20451;-85
2023/05/07 07:43:56;;;;;;;1.10;0.90;;;22.70;72.60;;;;;;4955086;29;20465;-85
2023/05/07 07:46:23;;;;;;;1.30;1.00;;;22.70;72.60;;;;;;4955214;29;20446;-85
2023/05/07 07:48:49;;;;;;;1.60;1.20;;;22.70;72.60;;;;;;4955112;29;20805;-85
2023/05/07 07:51:16;;;;;;;1.30;1.20;;;22.70;72.60;;;;;;4955008;29;20936;-85
2023/05/07 07:53:43;;;;;;;1.50;1.00;;;22.70;72.60;;;;;;4954939;29;20456;-84
2023/05/07 07:56:11;;;;;;;1.20;0.90;;;22.70;72.70;;;;;;4955095;29;20485;-84
2023/05/07 07:58:39;;;;;;;1.40;1.20;;;22.70;72.70;;;;;;4955047;29;20450;-85
2023/05/07 08:01:05;;;;;;;1.30;1.00;;;22.70;72.60;;;;;;4954888;29;20448;-84
2023/05/07 08:03:32;;;;;;;1.30;1.20;;;22.70;72.70;;;;;;4955004;29;20452;-84
2023/05/07 08:05:59;;;;;;;1.30;1.20;;;22.70;72.70;;;;;;4956076;28;20576;-84
2023/05/07 08:08:26;;;;;;;1.10;0.90;;;22.70;72.70;;;;;;4958779;29;20458;-84
2023/05/07 08:10:53;;;;;;;1.50;1.20;;;22.70;72.70;;;;;;4958694;29;20449;-84
2023/05/07 08:13:21;;;;;;;1.10;1.00;;;22.70;73.50;;;;;;4958773;29;20450;-84
2023/05/07 08:15:48;;;;;;;1.23;1.10;;;22.70;73.60;;;;;;4958726;29;20830;-84
2023/05/07 08:18:15;;;;;;;1.10;0.90;;;22.70;72.70;;;;;;4958777;29;20797;-84
2023/05/07 08:20:42;;;;;;;1.30;1.00;;;22.70;72.80;;;;;;4958639;29;20443;-84
2023/05/07 08:23:09;;;;;;;1.30;1.10;;;22.70;72.70;;;;;;4958768;29;20457;-84
2023/05/07 08:25:36;;;;;;;1.20;1.10;;;22.70;72.70;;;;;;4958608;29;20447;-84
2023/05/07 08:28:03;;;;;;;2.03;1.00;;;22.70;72.70;;;;;;4958699;29;20448;-84
2023/05/07 08:30:31;;;;;;;1.37;1.20;;;22.70;72.80;;;;;;4958423;29;20461;-84
2023/05/07 08:32:57;;;;;;;1.13;1.03;;;22.70;72.80;;;;;;4958527;29;20448;-85
2023/05/07 08:35:25;;;;;;;1.13;1.03;;;22.70;72.80;;;;;;4958654;28;20812;-85
2023/05/07 08:37:52;;;;;;;1.27;1.17;;;22.70;72.80;;;;;;4958209;29;20497;-85
2023/05/07 08:40:20;;;;;;;1.13;1.00;;;22.70;72.80;;;;;;4958291;29;21000;-85
2023/05/07 08:42:50;;;;;;;1.20;1.07;;;22.70;72.80;;;;;;4957957;29;20445;-85
2023/05/07 08:45:20;;;;;;;1.20;1.00;;;22.70;72.70;;;;;;4958359;29;20457;-84
2023/05/07 08:47:52;;;;;;;1.17;1.07;;;22.70;72.80;;;;;;4958164;29;20533;-84
2023/05/07 08:50:21;;;;;;;1.10;1.00;;;22.70;72.80;;;;;;4958291;29;20448;-84
2023/05/07 08:52:48;;;;;;;1.20;1.03;;;22.70;72.70;;;;;;4958107;29;21000;-84
2023/05/07 08:55:15;;;;;;;1.50;1.13;;;22.70;72.80;;;;;;4958035;29;20449;-84
2023/05/07 08:57:42;;;;;;;1.77;1.37;;;22.80;72.90;;;;;;4957879;29;20493;-84
2023/05/07 09:00:10;;;;;;;1.60;1.10;;;22.80;72.90;;;;;;4957859;29;20813;-84
2023/05/07 09:02:37;;;;;;;1.27;1.00;;;22.80;72.90;;;;;;4957952;29;20925;-84
2023/05/07 09:05:07;;;;;;;1.10;0.90;;;22.80;72.90;;;;;;4957762;28;20537;-84
2023/05/07 09:07:33;;;;;;;1.60;1.17;;;22.80;72.80;;;;;;4958034;28;20825;-84
2023/05/07 09:10:02;;;;;;;1.20;1.10;;;22.80;72.90;;;;;;4958010;29;20450;-84
2023/05/07 09:12:29;;;;;;;1.20;1.10;;;22.80;72.80;;;;;;4957824;29;20445;-84
2023/05/07 09:14:56;;;;;;;1.40;1.07;;;22.80;72.80;;;;;;4957627;29;20510;-84
2023/05/07 09:17:23;;;;;;;1.40;1.27;;;22.80;72.80;;;;;;4957011;28;20486;-84
2023/05/07 09:19:50;;;;;;;1.90;1.20;;;22.80;72.80;;;;;;4957545;29;20453;-84
2023/05/07 09:22:18;;;;;;;1.40;1.13;;;22.80;72.90;;;;;;4957449;29;20482;-85
2023/05/07 09:24:49;;;;;;;1.30;1.20;;;22.80;72.90;;;;;;4957482;29;20446;-85
2023/05/07 09:27:15;;;;;;;1.30;1.10;;;22.80;72.90;;;;;;4957477;29;20820;-85
2023/05/07 09:29:44;;;;;;;1.27;1.13;;;22.80;72.90;;;;;;4957396;29;20443;-85
2023/05/07 09:32:10;;;;;;;1.30;1.00;;;22.80;73.00;;;;;;4957309;29;20453;-85
2023/05/07 09:34:37;;;;;;;1.60;1.50;;;22.80;73.00;;;;;;4957361;28;20816;-85
2023/05/07 09:37:05;;;;;;;1.33;1.23;;;22.90;73.10;;;;;;4957250;29;20489;-86
2023/05/07 09:39:44;;;;;;;1.47;1.37;;;22.90;73.10;;;;;;4957192;29;20936;-85
2023/05/07 09:42:12;;;;;;;1.40;1.30;;;22.90;73.10;;;;;;4957562;29;20440;-85
2023/05/07 09:44:39;;;;;;;1.13;1.03;;;22.90;73.10;;;;;;4957188;29;20481;-85
2023/05/07 09:47:07;;;;;;;1.20;1.03;;;22.90;73.10;;;;;;4957209;29;20442;-85
2023/05/07 09:49:36;;;;;;;1.00;0.80;;;22.90;73.10;;;;;;4957153;29;20450;-85
2023/05/07 09:52:06;;;;;;;1.27;1.10;;;22.90;73.10;;;;;;4956983;29;21009;-85
2023/05/07 09:54:34;;;;;;;1.23;1.00;;;23.00;73.30;;;;;;4957116;29;20447;-85
2023/05/07 09:57:03;;;;;;;1.10;1.00;;;23.00;73.20;;;;;;4956650;29;20486;-85
2023/05/07 09:59:31;;;;;;;1.30;1.20;;;23.00;73.10;;;;;;4956767;29;20505;-85
2023/05/07 10:01:59;;;;;;;1.20;1.07;;;23.00;73.20;;;;;;4956738;29;20451;-85
2023/05/07 10:04:27;;;;;;;1.30;1.20;;;23.00;73.20;;;;;;4956814;28;20451;-85
2023/05/07 10:06:55;;;;;;;1.20;1.00;;;23.00;73.30;;;;;;4956638;29;20487;-85
2023/05/07 10:09:22;;;;;;;1.70;1.40;;;23.00;73.20;;;;;;4956684;29;20453;-85
2023/05/07 10:11:50;;;;;;;1.10;0.90;;;23.00;73.30;;;;;;4956783;29;20458;-85
2023/05/07 10:14:20;;;;;;;1.20;1.10;;;23.10;73.50;;;;;;4956601;29;20450;-85
2023/05/07 10:16:49;;;;;;;1.20;1.10;;;23.10;73.50;;;;;;4956506;29;20490;-85
2023/05/07 10:19:16;;;;;;;1.30;1.13;;;23.10;73.40;;;;;;4956515;29;20461;-85
2023/05/07 10:21:49;;;;;;;1.10;1.00;;;23.10;73.40;;;;;;4956422;29;20450;-85
2023/05/07 10:24:22;;;;;;;1.33;1.23;;;23.10;73.40;;;;;;4956536;29;20450;-85
2023/05/07 10:26:52;;;;;;;1.50;1.30;;;23.10;73.40;;;;;;4956443;29;20965;-85
2023/05/07 10:29:34;;;;;;;1.20;1.10;;;23.20;73.50;;;;;;4955491;28;20450;-85
2023/05/07 10:32:17;;;;;;;1.20;1.10;;;23.20;73.50;;;;;;4956245;29;20449;-85
2023/05/07 10:34:47;;;;;;;1.10;1.00;;;23.20;73.40;;;;;;4956129;28;20477;-85
2023/05/07 10:37:15;;;;;;;1.10;0.93;;;23.30;73.60;;;;;;4956208;29;20513;-85
2023/05/07 10:39:42;;;;;;;1.20;1.00;;;23.20;73.30;;;;;;4956065;29;20442;-85
2023/05/07 10:42:10;;;;;;;1.30;1.00;;;23.20;73.40;;;;;;4956240;29;20954;-85
2023/05/07 10:44:38;;;;;;;1.17;1.00;;;23.20;73.40;;;;;;4956079;29;20446;-85
2023/05/07 10:47:09;;;;;;;1.80;1.10;;;23.30;73.60;;;;;;4956044;29;20798;-85
2023/05/07 10:49:37;;;;;;;1.30;1.10;;;23.20;73.60;;;;;;4956047;29;20442;-85
2023/05/07 10:52:20;;;;;;;2.03;1.30;;;23.30;73.70;;;;;;5152392;27;20532;-85
2023/05/07 10:54:47;;;;;;;1.20;1.00;;;23.30;73.70;;;;;;5152293;27;20438;-85
2023/05/07 10:57:36;;;;;;;1.30;1.17;;;23.30;73.50;;;;;;5152272;27;20797;-85
2023/05/07 11:00:04;;;;;;;1.43;1.30;;;23.40;73.70;;;;;;5152330;27;20456;-85
2023/05/07 11:03:15;;;;;;;1.10;0.90;;;23.40;73.70;;;;;;5152125;27;20532;-85
2023/05/07 11:05:43;;;;;;;1.27;1.17;;;23.40;73.60;;;;;;5122756;28;20451;-85
2023/05/07 11:08:11;;;;;;;1.20;1.10;;;23.40;73.60;;;;;;5162676;27;20430;-85
2023/05/07 11:10:52;;;;;;;1.10;1.00;;;23.40;73.70;;;;;;5172737;27;20482;-85
2023/05/07 11:13:39;;;;;;;1.40;1.30;;;23.40;73.60;;;;;;5172781;27;20448;-85
2023/05/07 11:16:18;;;;;;;1.30;1.07;;;23.40;73.70;;;;;;5172744;27;20448;-85
2023/05/07 11:18:48;;;;;;;1.20;1.10;;;23.40;73.70;;;;;;5172628;27;20433;-85
2023/05/07 11:21:33;;;;;;;1.20;1.10;;;23.40;73.70;;;;;;5172572;27;20524;-85
2023/05/07 11:24:00;;;;;;;1.10;1.00;;;23.40;73.70;;;;;;5172592;27;20931;-85
2023/05/07 11:26:30;;;;;;;1.30;1.20;;;23.40;73.70;;;;;;5172484;27;20532;-85
2023/05/07 11:28:56;;;;;;;1.23;1.13;;;23.40;73.80;;;;;;5172542;27;20495;-85
2023/05/07 11:31:26;;;;;;;1.10;1.00;;;23.40;73.70;;;;;;5172274;27;20481;-85
2023/05/07 11:33:54;;;;;;;1.27;1.13;;;23.50;73.90;;;;;;5172409;27;20436;-85
2023/05/07 11:36:23;;;;;;;1.30;1.20;;;23.60;73.90;;;;;;5172409;27;20995;-85
2023/05/07 11:38:50;;;;;;;1.20;1.10;;;23.40;73.60;;;;;;5172067;27;20446;-85
2023/05/07 11:41:19;;;;;;;1.10;1.00;;;23.40;73.70;;;;;;5172283;27;20939;-85
2023/05/07 11:43:57;;;;;;;1.30;1.20;;;23.40;73.80;;;;;;5172267;27;20437;-85
2023/05/07 11:46:27;;;;;;;1.60;1.13;;;23.40;73.80;;;;;;5172319;27;20440;-85
2023/05/07 11:48:54;;;;;;;1.20;1.10;;;23.40;73.90;;;;;;5172108;27;20437;-83
2023/05/07 11:51:21;;;;;;;1.30;1.20;;;23.40;73.80;;;;;;5172474;27;20493;-85
2023/05/07 11:53:48;;;;;;;1.20;1.10;;;23.50;73.80;;;;;;5172191;27;20445;-85
2023/05/07 11:56:17;;;;;;;1.60;1.50;;;23.50;73.80;;;;;;5171918;27;20442;-85
2023/05/07 11:58:45;;;;;;;1.20;1.00;;;23.50;73.80;;;;;;5171799;27;20439;-85
2023/05/07 12:01:13;;;;;;;1.20;1.10;;;23.50;73.90;;;;;;5171805;27;20446;-84
2023/05/07 12:03:43;;;;;;;1.20;1.10;;;23.60;74.00;;;;;;5157294;27;20949;-85
2023/05/07 12:06:11;;;;;;;1.17;1.07;;;23.60;73.90;;;;;;5157661;27;20918;-85
2023/05/07 12:08:38;;;;;;;1.07;0.90;;;23.60;73.90;;;;;;5157778;27;20450;-85
2023/05/07 12:11:08;;;;;;;1.20;1.10;;;23.60;73.80;;;;;;5157596;27;20490;-85
2023/05/07 12:13:35;;;;;;;1.30;1.20;;;23.60;73.80;;;;;;5157702;27;20430;-85
2023/05/07 12:16:03;;;;;;;1.13;1.03;;;23.60;73.90;;;;;;5157625;27;20948;-84
2023/05/07 12:18:33;;;;;;;1.27;1.17;;;23.60;73.90;;;;;;5157479;27;20438;-84
2023/05/07 12:21:01;;;;;;;1.27;1.17;;;23.60;73.80;;;;;;5157618;27;20530;-84
2023/05/07 12:23:29;;;;;;;1.47;1.37;;;23.60;73.90;;;;;;5157486;27;20447;-85
2023/05/07 12:25:56;;;;;;;1.20;1.10;;;23.60;73.90;;;;;;5157419;27;20778;-85
2023/05/07 12:28:23;;;;;;;1.23;1.13;;;23.60;73.90;;;;;;5157350;27;20438;-85
2023/05/07 12:30:52;;;;;;;1.20;1.03;;;23.70;74.10;;;;;;5157261;27;20481;-85
2023/05/07 12:33:21;;;;;;;1.33;1.23;;;23.60;73.90;;;;;;5157324;27;20435;-84
2023/05/07 12:35:48;;;;;;;1.20;1.10;;;23.70;74.00;;;;;;5157165;27;20466;-85
2023/05/07 12:38:19;;;;;;;1.20;1.10;;;23.80;74.10;;;;;;5157150;27;20442;-85
2023/05/07 12:40:50;;;;;;;1.43;1.33;;;23.70;74.00;;;;;;5157161;27;20520;-84
2023/05/07 12:43:18;;;;;;;1.50;1.40;;;23.80;75.00;;;;;;5157298;27;20444;-85
2023/05/07 12:45:45;;;;;;;1.50;1.20;;;23.70;74.00;;;;;;5157087;27;20454;-86
2023/05/07 12:48:12;;;;;;;1.37;1.27;;;23.60;73.90;;;;;;5157092;27;20453;-85
2023/05/07 12:50:39;;;;;;;1.60;1.27;;;23.60;73.90;;;;;;5156709;27;20485;-85
2023/05/07 12:53:07;;;;;;;1.47;1.37;;;23.60;73.90;;;;;;5156841;27;20461;-84